Time;durP1;ratioP1;P1;durP2;ratioP2;P2;SDS_P1;SDS_P2;PMS_P1;PMS_P2;Temp;Humidity;BMP_temperature;BMP_pressure;BME280_temperature;BME280_humidity;BME280_pressure;Samples;Min_cycle;Max_cycle;Signal;HPM_P1;HPM_P2
2022/07/11 00:00:11;;;;;;;8.68;7.90;;;;;;;;;;2073352;28;20208;-51
2022/07/11 00:01:12;;;;;;;13.05;8.90;;;;;;;;;;2073165;28;20211;-52
2022/07/11 00:02:13;;;;;;;10.85;8.65;;;;;;;;;;2073325;28;20199;-52
2022/07/11 00:03:13;;;;;;;9.20;8.23;;;;;;;;;;2072448;28;20526;-53
2022/07/11 00:04:13;;;;;;;11.07;9.48;;;;;;;;;;2072001;28;20195;-53
2022/07/11 00:05:14;;;;;;;9.23;8.07;;;;;;;;;;2073016;28;20255;-54
2022/07/11 00:06:14;;;;;;;13.05;8.80;;;;;;;;;;2074306;28;20650;-52
2022/07/11 00:07:15;;;;;;;11.77;8.57;;;;;;;;;;2074883;28;20176;-53
2022/07/11 00:08:15;;;;;;;14.07;9.13;;;;;;;;;;2074181;28;20181;-56
2022/07/11 00:09:16;;;;;;;10.40;9.25;;;;;;;;;;2074287;28;20246;-55
2022/07/11 00:10:17;;;;;;;10.30;8.25;;;;;;;;;;2074439;28;20164;-52
2022/07/11 00:11:17;;;;;;;9.65;8.63;;;;;;;;;;2074342;28;20184;-55
2022/07/11 00:12:20;;;;;;;9.98;8.07;;;;;;;;;;2074934;28;20626;-55
2022/07/11 00:13:20;;;;;;;12.95;8.38;;;;;;;;;;2074275;28;20189;-53
2022/07/11 00:14:24;;;;;;;10.52;8.50;;;;;;;;;;2065400;28;20202;-52
2022/07/11 00:15:24;;;;;;;9.98;8.13;;;;;;;;;;2074311;28;20165;-54
2022/07/11 00:16:24;;;;;;;9.23;8.07;;;;;;;;;;2074722;28;20176;-55
2022/07/11 00:17:25;;;;;;;12.48;8.77;;;;;;;;;;2075014;28;20168;-51
2022/07/11 00:18:25;;;;;;;10.02;9.07;;;;;;;;;;2075057;28;20711;-51
2022/07/11 00:19:25;;;;;;;10.82;8.88;;;;;;;;;;2075022;28;20629;-53
2022/07/11 00:20:26;;;;;;;10.98;8.55;;;;;;;;;;2074798;28;20200;-52
2022/07/11 00:21:26;;;;;;;10.68;8.95;;;;;;;;;;2074901;28;20192;-54
2022/07/11 00:22:26;;;;;;;11.35;8.25;;;;;;;;;;2074575;28;20634;-54
2022/07/11 00:23:27;;;;;;;10.60;8.77;;;;;;;;;;2066143;28;20193;-52
2022/07/11 00:24:27;;;;;;;11.77;8.15;;;;;;;;;;2065305;28;20173;-53
2022/07/11 00:25:28;;;;;;;8.73;7.95;;;;;;;;;;2074563;28;20334;-52
2022/07/11 00:26:28;;;;;;;10.18;8.32;;;;;;;;;;2074749;28;20634;-52
2022/07/11 00:27:28;;;;;;;10.35;9.30;;;;;;;;;;2074021;28;20654;-52
2022/07/11 00:28:29;;;;;;;9.57;8.52;;;;;;;;;;2074745;28;20804;-53
2022/07/11 00:29:29;;;;;;;9.32;8.40;;;;;;;;;;2075183;28;20172;-54
2022/07/11 00:30:29;;;;;;;8.98;8.18;;;;;;;;;;2074632;28;20271;-52
2022/07/11 00:31:30;;;;;;;10.07;9.00;;;;;;;;;;2074663;28;20288;-52
2022/07/11 00:32:30;;;;;;;9.63;8.50;;;;;;;;;;2074716;28;20172;-51
2022/07/11 00:33:30;;;;;;;10.60;8.63;;;;;;;;;;2074945;28;20692;-53
2022/07/11 00:34:31;;;;;;;10.90;8.05;;;;;;;;;;2073908;28;20634;-52
2022/07/11 00:35:31;;;;;;;9.60;8.65;;;;;;;;;;2075133;28;20199;-53
2022/07/11 00:36:32;;;;;;;10.70;8.63;;;;;;;;;;2074682;28;20211;-52
2022/07/11 00:37:32;;;;;;;9.75;8.82;;;;;;;;;;2074543;28;20177;-53
2022/07/11 00:38:32;;;;;;;9.18;8.27;;;;;;;;;;2074636;28;20587;-52
2022/07/11 00:39:32;;;;;;;11.20;9.43;;;;;;;;;;2074630;28;20179;-52
2022/07/11 00:40:33;;;;;;;10.98;9.10;;;;;;;;;;2074522;28;20181;-52
2022/07/11 00:41:33;;;;;;;9.82;8.95;;;;;;;;;;2074808;28;20192;-52
2022/07/11 00:42:34;;;;;;;10.05;9.05;;;;;;;;;;2074246;28;20645;-54
2022/07/11 00:43:35;;;;;;;12.18;9.05;;;;;;;;;;2074770;28;20173;-53
2022/07/11 00:44:38;;;;;;;9.95;8.75;;;;;;;;;;2073517;28;20173;-55
2022/07/11 00:45:39;;;;;;;9.82;8.57;;;;;;;;;;2074529;28;20618;-52
2022/07/11 00:46:39;;;;;;;9.80;8.77;;;;;;;;;;2074749;28;20216;-53
2022/07/11 00:47:39;;;;;;;9.52;8.65;;;;;;;;;;2074996;28;20213;-53
2022/07/11 00:48:40;;;;;;;11.38;9.15;;;;;;;;;;2074620;28;20173;-54
2022/07/11 00:49:40;;;;;;;11.68;8.13;;;;;;;;;;2074554;28;20239;-55
2022/07/11 00:50:40;;;;;;;10.48;8.90;;;;;;;;;;2074661;28;20172;-55
2022/07/11 00:51:41;;;;;;;9.90;8.88;;;;;;;;;;2074651;28;20583;-52
2022/07/11 00:52:42;;;;;;;12.15;9.45;;;;;;;;;;2074251;28;20252;-52
2022/07/11 00:53:42;;;;;;;11.88;9.43;;;;;;;;;;2076237;28;20725;-56
2022/07/11 00:54:44;;;;;;;9.07;8.27;;;;;;;;;;2076019;28;20251;-55
2022/07/11 00:55:44;;;;;;;9.45;8.10;;;;;;;;;;2077294;28;20172;-54
2022/07/11 00:56:44;;;;;;;10.40;8.35;;;;;;;;;;2077032;28;20185;-56
2022/07/11 00:57:45;;;;;;;10.93;8.25;;;;;;;;;;2077191;28;20184;-57
2022/07/11 00:58:45;;;;;;;10.40;9.30;;;;;;;;;;2077148;28;20161;-53
2022/07/11 00:59:46;;;;;;;10.38;9.35;;;;;;;;;;2075432;28;20177;-55
2022/07/11 01:00:47;;;;;;;9.73;8.77;;;;;;;;;;2074659;28;20175;-54
2022/07/11 01:01:47;;;;;;;10.73;9.00;;;;;;;;;;2075075;28;20255;-54
2022/07/11 01:02:48;;;;;;;11.60;8.25;;;;;;;;;;2074710;28;20266;-50
2022/07/11 01:03:48;;;;;;;11.90;9.55;;;;;;;;;;2074569;28;20252;-50
2022/07/11 01:04:49;;;;;;;9.93;8.25;;;;;;;;;;2073071;28;20185;-53
2022/07/11 01:05:49;;;;;;;9.35;8.45;;;;;;;;;;2073113;28;20203;-53
2022/07/11 01:06:50;;;;;;;9.82;8.93;;;;;;;;;;2074511;28;20227;-51
2022/07/11 01:07:50;;;;;;;10.35;9.27;;;;;;;;;;2074215;28;20532;-54
2022/07/11 01:08:50;;;;;;;11.13;8.68;;;;;;;;;;2074569;28;20264;-52
2022/07/11 01:09:51;;;;;;;12.13;9.27;;;;;;;;;;2074162;28;20177;-52
2022/07/11 01:10:51;;;;;;;10.10;8.13;;;;;;;;;;2074427;28;20169;-55
2022/07/11 01:11:51;;;;;;;12.77;9.02;;;;;;;;;;2073701;28;20274;-54
2022/07/11 01:12:52;;;;;;;10.27;9.15;;;;;;;;;;2073452;28;20180;-53
2022/07/11 01:13:52;;;;;;;9.75;8.85;;;;;;;;;;2073789;28;20165;-51
2022/07/11 01:14:53;;;;;;;11.35;8.57;;;;;;;;;;2073983;28;20264;-51
2022/07/11 01:16:26;;;;;;;8.52;7.53;;;;;;;;;;2074528;28;20173;-53
2022/07/11 01:17:28;;;;;;;9.57;8.70;;;;;;;;;;2049232;29;20214;-53
2022/07/11 01:18:28;;;;;;;9.82;8.43;;;;;;;;;;2067240;28;20189;-52
2022/07/11 01:19:29;;;;;;;8.18;7.55;;;;;;;;;;2074190;28;20177;-51
2022/07/11 01:20:29;;;;;;;9.88;8.05;;;;;;;;;;2074349;28;20669;-52
2022/07/11 01:21:30;;;;;;;10.52;8.48;;;;;;;;;;2074518;28;20634;-55
2022/07/11 01:22:35;;;;;;;8.95;7.60;;;;;;;;;;2074211;28;20678;-52
2022/07/11 01:23:35;;;;;;;10.20;8.52;;;;;;;;;;2074399;28;20642;-51
2022/07/11 01:24:35;;;;;;;9.73;8.80;;;;;;;;;;2073172;28;20204;-52
2022/07/11 01:25:36;;;;;;;10.02;8.02;;;;;;;;;;2074238;28;20193;-52
2022/07/11 01:26:37;;;;;;;9.13;8.23;;;;;;;;;;2073687;28;20195;-54
2022/07/11 01:27:38;;;;;;;9.32;8.40;;;;;;;;;;2073706;28;20215;-55
2022/07/11 01:28:38;;;;;;;8.75;7.70;;;;;;;;;;2074220;28;20810;-54
2022/07/11 01:29:39;;;;;;;13.23;8.50;;;;;;;;;;2074059;28;20177;-52
2022/07/11 01:30:40;;;;;;;10.73;8.38;;;;;;;;;;2074282;28;20165;-53
2022/07/11 01:31:43;;;;;;;9.43;8.57;;;;;;;;;;2073244;28;20196;-52
2022/07/11 01:32:44;;;;;;;8.90;8.10;;;;;;;;;;2073680;28;20177;-56
2022/07/11 01:33:44;;;;;;;9.20;8.25;;;;;;;;;;2074412;28;20528;-53
2022/07/11 01:34:45;;;;;;;14.32;9.02;;;;;;;;;;2073324;28;20165;-55
2022/07/11 01:35:45;;;;;;;13.48;8.52;;;;;;;;;;2074482;28;20685;-56
2022/07/11 01:36:45;;;;;;;11.20;9.18;;;;;;;;;;2073766;28;20181;-51
2022/07/11 01:37:46;;;;;;;10.35;8.85;;;;;;;;;;2065485;28;20192;-53
2022/07/11 01:38:46;;;;;;;10.10;8.88;;;;;;;;;;2073693;28;20177;-51
2022/07/11 01:39:47;;;;;;;9.77;8.90;;;;;;;;;;2073806;28;20177;-53
2022/07/11 01:40:47;;;;;;;9.73;8.02;;;;;;;;;;2074146;28;20184;-54
2022/07/11 01:41:47;;;;;;;10.75;8.40;;;;;;;;;;2074082;28;20263;-53
2022/07/11 01:42:48;;;;;;;10.40;9.27;;;;;;;;;;2073757;28;20247;-55
2022/07/11 01:43:48;;;;;;;14.18;9.85;;;;;;;;;;2073529;28;20181;-53
2022/07/11 01:44:48;;;;;;;12.77;9.50;;;;;;;;;;2073293;28;20173;-52
2022/07/11 01:45:52;;;;;;;9.20;8.40;;;;;;;;;;2073950;28;20205;-51
2022/07/11 01:46:52;;;;;;;9.90;8.90;;;;;;;;;;2074207;28;20173;-51
2022/07/11 01:47:54;;;;;;;10.23;8.48;;;;;;;;;;2074114;28;20608;-54
2022/07/11 01:48:54;;;;;;;10.20;9.10;;;;;;;;;;2072343;28;20177;-53
2022/07/11 01:49:55;;;;;;;10.35;9.25;;;;;;;;;;2073655;28;20200;-52
2022/07/11 01:50:56;;;;;;;10.30;9.20;;;;;;;;;;2074145;28;20204;-51
2022/07/11 01:51:56;;;;;;;13.95;9.70;;;;;;;;;;2073999;28;20658;-53
2022/07/11 01:52:56;;;;;;;11.25;9.73;;;;;;;;;;2074199;28;20169;-52
2022/07/11 01:53:57;;;;;;;9.75;8.85;;;;;;;;;;2073551;28;20181;-50
2022/07/11 01:54:57;;;;;;;10.85;9.40;;;;;;;;;;2073638;28;20161;-52
2022/07/11 01:55:58;;;;;;;10.57;9.45;;;;;;;;;;2073993;28;20223;-51
2022/07/11 01:56:58;;;;;;;10.57;9.05;;;;;;;;;;2067001;28;20199;-56
2022/07/11 01:57:58;;;;;;;9.73;8.88;;;;;;;;;;2065241;28;20578;-54
2022/07/11 01:59:01;;;;;;;13.73;10.57;;;;;;;;;;2069599;28;20552;-55
2022/07/11 02:00:02;;;;;;;10.88;9.85;;;;;;;;;;2073688;28;20176;-53
2022/07/11 02:01:05;;;;;;;12.38;9.88;;;;;;;;;;2074096;28;20252;-54
2022/07/11 02:02:05;;;;;;;10.80;9.63;;;;;;;;;;2073917;28;20185;-56
2022/07/11 02:03:05;;;;;;;11.80;10.75;;;;;;;;;;2073867;28;20173;-54
2022/07/11 02:04:06;;;;;;;11.25;9.57;;;;;;;;;;2072874;28;20200;-51
2022/07/11 02:05:06;;;;;;;11.23;9.10;;;;;;;;;;2073670;28;20177;-52
2022/07/11 02:06:06;;;;;;;11.27;9.45;;;;;;;;;;2073190;28;20760;-57
2022/07/11 02:07:07;;;;;;;10.88;9.32;;;;;;;;;;2073117;28;20216;-55
2022/07/11 02:08:14;;;;;;;12.50;9.48;;;;;;;;;;2073839;28;20272;-55
2022/07/11 02:09:14;;;;;;;11.38;10.07;;;;;;;;;;2073745;28;20203;-50
2022/07/11 02:10:15;;;;;;;11.70;9.88;;;;;;;;;;2073033;28;20658;-53
2022/07/11 02:11:15;;;;;;;11.45;9.98;;;;;;;;;;2065335;28;20248;-55
2022/07/11 02:12:15;;;;;;;12.63;9.63;;;;;;;;;;2073332;28;20188;-52
2022/07/11 02:13:17;;;;;;;11.68;10.48;;;;;;;;;;2073430;28;20559;-51
2022/07/11 02:14:17;;;;;;;12.52;11.20;;;;;;;;;;2073005;28;20677;-53
2022/07/11 02:15:17;;;;;;;12.80;10.45;;;;;;;;;;2073623;28;20165;-51
2022/07/11 02:16:18;;;;;;;12.95;10.20;;;;;;;;;;2073147;28;20204;-52
2022/07/11 02:17:18;;;;;;;10.20;8.57;;;;;;;;;;2073303;28;20165;-52
2022/07/11 02:18:19;;;;;;;10.20;8.93;;;;;;;;;;2073796;28;20173;-52
2022/07/11 02:19:19;;;;;;;13.13;9.73;;;;;;;;;;2074041;28;20191;-52
2022/07/11 02:20:20;;;;;;;14.43;10.45;;;;;;;;;;2072979;28;20578;-53
2022/07/11 02:21:20;;;;;;;11.70;9.25;;;;;;;;;;2064965;28;20736;-52
2022/07/11 02:22:21;;;;;;;14.65;9.30;;;;;;;;;;2073696;28;20168;-55
2022/07/11 02:23:21;;;;;;;12.95;9.77;;;;;;;;;;2074093;28;20599;-52
2022/07/11 02:24:22;;;;;;;11.07;9.63;;;;;;;;;;2073599;28;20252;-53
2022/07/11 02:25:22;;;;;;;10.20;9.20;;;;;;;;;;2073635;28;20169;-55
2022/07/11 02:26:23;;;;;;;11.20;9.40;;;;;;;;;;2073994;28;20169;-51
2022/07/11 02:27:23;;;;;;;14.45;9.45;;;;;;;;;;2073950;28;20185;-53
2022/07/11 02:28:24;;;;;;;11.07;8.85;;;;;;;;;;2073216;28;20272;-53
2022/07/11 02:29:24;;;;;;;10.48;9.43;;;;;;;;;;2073837;28;20189;-55
2022/07/11 02:30:25;;;;;;;8.77;7.97;;;;;;;;;;2073769;28;20173;-52
2022/07/11 02:31:25;;;;;;;9.45;8.63;;;;;;;;;;2073842;28;20196;-53
2022/07/11 02:32:25;;;;;;;10.50;9.38;;;;;;;;;;2073798;28;20184;-52
2022/07/11 02:33:26;;;;;;;15.10;8.80;;;;;;;;;;2073824;28;20165;-53
2022/07/11 02:34:27;;;;;;;16.75;8.63;;;;;;;;;;2072854;28;20581;-55
2022/07/11 02:35:27;;;;;;;13.05;8.60;;;;;;;;;;2073743;28;20748;-51
2022/07/11 02:36:28;;;;;;;8.93;7.88;;;;;;;;;;2073376;28;20224;-54
2022/07/11 02:37:28;;;;;;;12.75;8.10;;;;;;;;;;2073166;28;20576;-52
2022/07/11 02:38:28;;;;;;;10.38;8.68;;;;;;;;;;2073069;28;20200;-54
2022/07/11 02:39:29;;;;;;;9.32;8.38;;;;;;;;;;2073257;28;20173;-54
2022/07/11 02:40:29;;;;;;;10.45;8.55;;;;;;;;;;2073397;28;20234;-52
2022/07/11 02:41:29;;;;;;;9.80;8.88;;;;;;;;;;2073684;28;20227;-55
2022/07/11 02:42:30;;;;;;;11.73;7.90;;;;;;;;;;2073957;28;20172;-54
2022/07/11 02:43:30;;;;;;;10.27;8.60;;;;;;;;;;2073738;28;20260;-54
2022/07/11 02:44:30;;;;;;;11.85;8.52;;;;;;;;;;2073005;28;20173;-52
2022/07/11 02:45:31;;;;;;;14.35;9.00;;;;;;;;;;2073416;28;20201;-56
2022/07/11 02:46:32;;;;;;;10.65;8.93;;;;;;;;;;2073702;28;20208;-53
2022/07/11 02:47:32;;;;;;;9.30;8.02;;;;;;;;;;2073625;28;20180;-54
2022/07/11 02:48:32;;;;;;;10.30;8.48;;;;;;;;;;2073608;28;20815;-52
2022/07/11 02:49:33;;;;;;;11.55;8.15;;;;;;;;;;2073802;28;20184;-51
2022/07/11 02:50:33;;;;;;;10.07;7.93;;;;;;;;;;2073178;28;20245;-51
2022/07/11 02:51:33;;;;;;;14.52;9.43;;;;;;;;;;2073828;28;20188;-55
2022/07/11 02:52:34;;;;;;;9.93;8.32;;;;;;;;;;2074279;28;20223;-54
2022/07/11 02:53:34;;;;;;;9.55;8.63;;;;;;;;;;2074984;28;20165;-53
2022/07/11 02:54:35;;;;;;;12.27;8.75;;;;;;;;;;2074627;28;20199;-54
2022/07/11 02:55:35;;;;;;;10.73;9.23;;;;;;;;;;2075398;28;20200;-53
2022/07/11 02:56:35;;;;;;;11.52;8.55;;;;;;;;;;2073823;28;20211;-54
2022/07/11 02:57:38;;;;;;;8.95;7.82;;;;;;;;;;2074045;28;20672;-51
2022/07/11 02:58:38;;;;;;;9.75;8.23;;;;;;;;;;2073295;28;20168;-55
2022/07/11 02:59:39;;;;;;;12.23;8.20;;;;;;;;;;2073693;28;20184;-51
2022/07/11 03:00:39;;;;;;;15.55;9.48;;;;;;;;;;2073412;28;20200;-53
2022/07/11 03:01:42;;;;;;;9.88;7.68;;;;;;;;;;2073268;28;20735;-55
2022/07/11 03:02:43;;;;;;;9.20;7.75;;;;;;;;;;2073467;28;20177;-54
2022/07/11 03:03:43;;;;;;;10.95;7.78;;;;;;;;;;2073663;28;20171;-55
2022/07/11 03:04:44;;;;;;;11.65;8.65;;;;;;;;;;2072505;28;20180;-52
2022/07/11 03:05:44;;;;;;;9.75;8.65;;;;;;;;;;2073484;28;20200;-51
2022/07/11 03:06:44;;;;;;;10.70;7.43;;;;;;;;;;2073162;28;20196;-52
2022/07/11 03:07:44;;;;;;;9.90;8.02;;;;;;;;;;2073069;28;20223;-55
2022/07/11 03:08:45;;;;;;;9.77;8.30;;;;;;;;;;2073517;28;20169;-52
2022/07/11 03:09:45;;;;;;;12.07;8.93;;;;;;;;;;2073498;28;20270;-53
2022/07/11 03:10:45;;;;;;;13.10;8.90;;;;;;;;;;2072484;28;20612;-54
2022/07/11 03:11:46;;;;;;;10.52;8.38;;;;;;;;;;2073057;28;20648;-52
2022/07/11 03:12:46;;;;;;;9.95;8.02;;;;;;;;;;2073376;28;20268;-55
2022/07/11 03:13:46;;;;;;;11.88;8.38;;;;;;;;;;2073427;28;20188;-53
2022/07/11 03:14:47;;;;;;;13.57;7.97;;;;;;;;;;2072634;28;20259;-57
2022/07/11 03:15:47;;;;;;;8.75;7.72;;;;;;;;;;2073503;28;20223;-55
2022/07/11 03:16:47;;;;;;;9.98;7.78;;;;;;;;;;2073454;28;20283;-53
2022/07/11 03:17:48;;;;;;;11.13;7.53;;;;;;;;;;2073481;28;20169;-54
2022/07/11 03:18:48;;;;;;;9.82;7.63;;;;;;;;;;2073531;28;20184;-51
2022/07/11 03:19:49;;;;;;;9.73;7.60;;;;;;;;;;2073394;28;20181;-51
2022/07/11 03:20:49;;;;;;;12.48;7.38;;;;;;;;;;2073289;28;20690;-58
2022/07/11 03:21:49;;;;;;;13.63;8.10;;;;;;;;;;2073341;28;20247;-52
2022/07/11 03:22:50;;;;;;;7.72;7.00;;;;;;;;;;2073458;28;20173;-52
2022/07/11 03:23:50;;;;;;;11.85;6.65;;;;;;;;;;2073409;28;20177;-55
2022/07/11 03:24:50;;;;;;;7.15;6.22;;;;;;;;;;2072679;28;20653;-51
2022/07/11 03:25:51;;;;;;;7.88;6.18;;;;;;;;;;2072610;28;20213;-51
2022/07/11 03:26:51;;;;;;;7.38;6.00;;;;;;;;;;2072959;28;20192;-52
2022/07/11 03:27:51;;;;;;;7.00;5.78;;;;;;;;;;2073247;28;20242;-54
2022/07/11 03:28:52;;;;;;;5.78;5.28;;;;;;;;;;2073562;28;20169;-53
2022/07/11 03:29:52;;;;;;;6.45;5.80;;;;;;;;;;2073214;28;20165;-55
2022/07/11 03:30:52;;;;;;;6.25;5.65;;;;;;;;;;2071837;28;20177;-51
2022/07/11 03:31:53;;;;;;;8.10;5.90;;;;;;;;;;2082505;23;20499;-50
2022/07/11 03:32:53;;;;;;;6.65;5.55;;;;;;;;;;2087523;28;20233;-58
2022/07/11 03:33:53;;;;;;;7.45;5.90;;;;;;;;;;2088457;28;20185;-47
2022/07/11 03:36:13;;;;;;;5.97;5.38;;;;;;;;;;2081262;28;20699;-53
2022/07/11 03:37:13;;;;;;;6.65;5.68;;;;;;;;;;2081414;28;20176;-51
2022/07/11 03:38:17;;;;;;;8.00;5.03;;;;;;;;;;2081339;28;20269;-50
2022/07/11 03:39:17;;;;;;;7.45;4.75;;;;;;;;;;2081222;28;20175;-49
2022/07/11 03:40:18;;;;;;;7.55;5.13;;;;;;;;;;2080792;28;20631;-53
2022/07/11 03:41:18;;;;;;;7.15;5.40;;;;;;;;;;2080825;28;20172;-53
2022/07/11 03:42:18;;;;;;;6.32;5.55;;;;;;;;;;2088283;28;20187;-51
2022/07/11 03:43:18;;;;;;;5.45;4.95;;;;;;;;;;2089691;28;20174;-56
2022/07/11 03:44:19;;;;;;;5.25;4.82;;;;;;;;;;2088909;28;20168;-54
2022/07/11 03:45:19;;;;;;;8.93;4.35;;;;;;;;;;2089575;28;20636;-51
2022/07/11 03:46:20;;;;;;;6.97;4.50;;;;;;;;;;2089397;28;20194;-51
2022/07/11 03:47:20;;;;;;;5.75;4.60;;;;;;;;;;2089697;28;20164;-52
2022/07/11 03:48:20;;;;;;;4.90;4.50;;;;;;;;;;2089533;28;20179;-53
2022/07/11 03:49:21;;;;;;;4.88;4.38;;;;;;;;;;2088154;28;20167;-52
2022/07/11 03:50:21;;;;;;;4.53;4.13;;;;;;;;;;2088704;28;20271;-54
2022/07/11 03:51:21;;;;;;;5.85;4.35;;;;;;;;;;2089303;28;20171;-51
2022/07/11 03:52:22;;;;;;;6.63;4.68;;;;;;;;;;2088808;28;20632;-53
2022/07/11 03:53:22;;;;;;;5.05;4.63;;;;;;;;;;2089042;28;20218;-49
2022/07/11 03:54:22;;;;;;;6.22;4.63;;;;;;;;;;2088747;28;20255;-51
2022/07/11 03:55:23;;;;;;;6.35;4.53;;;;;;;;;;2089421;28;20186;-51
2022/07/11 03:56:23;;;;;;;5.07;4.20;;;;;;;;;;2088628;28;20163;-51
2022/07/11 03:57:23;;;;;;;4.97;4.30;;;;;;;;;;2089497;28;20233;-55
2022/07/11 03:58:24;;;;;;;6.00;4.85;;;;;;;;;;2089486;28;20187;-51
2022/07/11 03:59:24;;;;;;;4.70;4.30;;;;;;;;;;2089559;28;20167;-51
2022/07/11 04:00:24;;;;;;;4.82;4.40;;;;;;;;;;2088917;28;20171;-54
2022/07/11 04:01:25;;;;;;;4.47;4.07;;;;;;;;;;2088961;28;20221;-53
2022/07/11 04:02:25;;;;;;;4.47;4.07;;;;;;;;;;2089802;28;20193;-51
2022/07/11 04:03:26;;;;;;;6.28;4.47;;;;;;;;;;2089781;28;20155;-52
2022/07/11 04:04:26;;;;;;;6.07;4.10;;;;;;;;;;2088156;28;20164;-56
2022/07/11 04:05:26;;;;;;;5.40;3.80;;;;;;;;;;2088736;28;20179;-55
2022/07/11 04:06:27;;;;;;;5.22;4.63;;;;;;;;;;2089071;28;20202;-53
2022/07/11 04:07:30;;;;;;;5.78;4.10;;;;;;;;;;2089443;28;20191;-51
2022/07/11 04:08:30;;;;;;;5.28;4.60;;;;;;;;;;2089557;28;20163;-51
2022/07/11 04:09:31;;;;;;;4.85;4.35;;;;;;;;;;2089415;28;20179;-48
2022/07/11 04:10:31;;;;;;;4.18;3.88;;;;;;;;;;2089437;28;20164;-51
2022/07/11 04:11:31;;;;;;;6.43;4.15;;;;;;;;;;2089120;28;20172;-53
2022/07/11 04:12:32;;;;;;;4.95;4.30;;;;;;;;;;2089829;28;20234;-56
2022/07/11 04:13:32;;;;;;;4.80;4.40;;;;;;;;;;2089580;28;20167;-51
2022/07/11 04:14:33;;;;;;;4.80;4.40;;;;;;;;;;2088604;28;20171;-53
2022/07/11 04:15:34;;;;;;;4.63;4.22;;;;;;;;;;2089692;28;20546;-52
2022/07/11 04:16:34;;;;;;;6.82;4.30;;;;;;;;;;2089512;28;20180;-55
2022/07/11 04:17:34;;;;;;;5.97;3.97;;;;;;;;;;2089512;28;20179;-50
2022/07/11 04:18:35;;;;;;;5.68;4.07;;;;;;;;;;2089580;28;20536;-53
2022/07/11 04:19:35;;;;;;;5.10;4.18;;;;;;;;;;2089493;28;20546;-51
2022/07/11 04:20:35;;;;;;;5.07;4.68;;;;;;;;;;2089412;28;20176;-50
2022/07/11 04:21:36;;;;;;;4.28;3.97;;;;;;;;;;2089342;28;20551;-53
2022/07/11 04:22:36;;;;;;;4.70;4.38;;;;;;;;;;2088951;28;20682;-52
2022/07/11 04:23:36;;;;;;;4.20;3.85;;;;;;;;;;2089008;28;20664;-52
2022/07/11 04:24:37;;;;;;;4.88;4.38;;;;;;;;;;2088682;28;20557;-50
2022/07/11 04:25:37;;;;;;;4.95;3.90;;;;;;;;;;2089027;28;20226;-53
2022/07/11 04:26:38;;;;;;;6.68;4.22;;;;;;;;;;2088379;28;20174;-53
2022/07/11 04:27:38;;;;;;;4.60;4.20;;;;;;;;;;2088043;28;20180;-52
2022/07/11 04:28:38;;;;;;;5.47;3.67;;;;;;;;;;2089076;28;20375;-53
2022/07/11 04:29:38;;;;;;;5.15;4.43;;;;;;;;;;2089107;28;20179;-55
2022/07/11 04:30:39;;;;;;;4.40;4.00;;;;;;;;;;2088582;28;20648;-51
2022/07/11 04:31:39;;;;;;;4.93;4.45;;;;;;;;;;2088736;28;20183;-52
2022/07/11 04:32:39;;;;;;;6.95;5.10;;;;;;;;;;2089471;28;20190;-52
2022/07/11 04:33:40;;;;;;;5.55;4.28;;;;;;;;;;2089619;28;20164;-55
2022/07/11 04:34:40;;;;;;;3.80;3.50;;;;;;;;;;2088067;28;20187;-54
2022/07/11 04:35:42;;;;;;;5.07;4.57;;;;;;;;;;2088733;28;20183;-54
2022/07/11 04:36:42;;;;;;;5.85;3.95;;;;;;;;;;2087802;28;20179;-56
2022/07/11 04:37:43;;;;;;;4.88;4.45;;;;;;;;;;2085256;28;20198;-54
2022/07/11 04:38:44;;;;;;;4.72;4.13;;;;;;;;;;2089311;28;20180;-58
2022/07/11 04:39:46;;;;;;;4.88;4.35;;;;;;;;;;2089421;28;20167;-54
2022/07/11 04:40:48;;;;;;;4.55;4.15;;;;;;;;;;2088947;28;20175;-52
2022/07/11 04:41:48;;;;;;;6.07;4.43;;;;;;;;;;2089442;28;20205;-55
2022/07/11 04:42:52;;;;;;;5.35;4.57;;;;;;;;;;2089173;28;20628;-54
2022/07/11 04:43:52;;;;;;;4.47;4.13;;;;;;;;;;2089191;28;20710;-55
2022/07/11 04:44:52;;;;;;;7.57;5.03;;;;;;;;;;2088940;28;20171;-56
2022/07/11 04:45:52;;;;;;;5.68;4.60;;;;;;;;;;2089344;28;20192;-53
2022/07/11 04:46:53;;;;;;;7.45;4.65;;;;;;;;;;2089320;28;20671;-51
2022/07/11 04:47:53;;;;;;;5.28;4.78;;;;;;;;;;2089703;28;20624;-51
2022/07/11 04:48:54;;;;;;;5.78;4.88;;;;;;;;;;2089608;28;20210;-53
2022/07/11 04:49:54;;;;;;;6.22;4.45;;;;;;;;;;2089433;28;20160;-49
2022/07/11 04:50:54;;;;;;;5.25;4.72;;;;;;;;;;2089277;28;20164;-52
2022/07/11 04:51:55;;;;;;;5.72;4.47;;;;;;;;;;2090439;28;20187;-54
2022/07/11 04:52:55;;;;;;;5.40;4.90;;;;;;;;;;2089982;28;20190;-52
2022/07/11 04:53:55;;;;;;;5.13;4.70;;;;;;;;;;2090061;28;20168;-48
2022/07/11 04:54:56;;;;;;;5.43;4.93;;;;;;;;;;2089618;28;20245;-57
2022/07/11 04:55:56;;;;;;;5.00;4.60;;;;;;;;;;2090243;28;20258;-52
2022/07/11 04:56:57;;;;;;;5.68;5.05;;;;;;;;;;2090244;28;20191;-53
2022/07/11 04:57:58;;;;;;;5.65;4.95;;;;;;;;;;2090414;28;20178;-55
2022/07/11 04:58:58;;;;;;;6.03;5.40;;;;;;;;;;2091134;28;20184;-52
2022/07/11 05:00:00;;;;;;;7.97;4.75;;;;;;;;;;2090487;28;20420;-49
2022/07/11 05:01:00;;;;;;;5.13;4.63;;;;;;;;;;2090258;28;20215;-61
2022/07/11 05:02:01;;;;;;;7.40;5.10;;;;;;;;;;2087955;28;20187;-50
2022/07/11 05:03:02;;;;;;;5.47;5.03;;;;;;;;;;2089953;28;20172;-56
2022/07/11 05:04:03;;;;;;;5.28;4.78;;;;;;;;;;2089589;28;20254;-54
2022/07/11 05:05:03;;;;;;;7.53;5.10;;;;;;;;;;2090961;28;20251;-51
2022/07/11 05:06:04;;;;;;;5.47;4.80;;;;;;;;;;2090640;28;20684;-54
2022/07/11 05:07:05;;;;;;;5.53;4.95;;;;;;;;;;2089536;28;20243;-52
2022/07/11 05:08:05;;;;;;;5.47;4.97;;;;;;;;;;2090790;28;20606;-55
2022/07/11 05:09:07;;;;;;;5.00;4.65;;;;;;;;;;2090390;28;20171;-53
2022/07/11 05:10:08;;;;;;;5.90;5.00;;;;;;;;;;2090114;28;20443;-51
2022/07/11 05:11:08;;;;;;;6.20;5.43;;;;;;;;;;2091036;28;20164;-51
2022/07/11 05:12:08;;;;;;;4.60;4.20;;;;;;;;;;2090660;28;20192;-55
2022/07/11 05:13:09;;;;;;;6.13;4.65;;;;;;;;;;2090765;28;20179;-53
2022/07/11 05:14:10;;;;;;;7.10;6.40;;;;;;;;;;2089750;28;20171;-51
2022/07/11 05:15:10;;;;;;;5.30;4.90;;;;;;;;;;2090999;28;20191;-52
2022/07/11 05:16:10;;;;;;;5.18;4.78;;;;;;;;;;2090665;28;20197;-57
2022/07/11 05:17:11;;;;;;;5.75;4.78;;;;;;;;;;2090942;28;20164;-54
2022/07/11 05:18:11;;;;;;;5.28;4.85;;;;;;;;;;2090565;28;20242;-49
2022/07/11 05:19:11;;;;;;;4.97;4.57;;;;;;;;;;2091046;28;20164;-51
2022/07/11 05:20:11;;;;;;;7.25;4.38;;;;;;;;;;2090682;28;20160;-53
2022/07/11 05:21:12;;;;;;;4.63;4.22;;;;;;;;;;2090802;28;20172;-53
2022/07/11 05:22:12;;;;;;;5.28;4.88;;;;;;;;;;2090791;28;20191;-55
2022/07/11 05:23:13;;;;;;;5.32;4.47;;;;;;;;;;2090927;28;20170;-54
2022/07/11 05:24:13;;;;;;;5.00;4.60;;;;;;;;;;2088093;28;20175;-55
2022/07/11 05:25:13;;;;;;;8.73;5.43;;;;;;;;;;2081590;28;20176;-51
2022/07/11 05:26:14;;;;;;;6.15;4.40;;;;;;;;;;2081799;28;20207;-49
2022/07/11 05:27:15;;;;;;;5.05;4.35;;;;;;;;;;2082539;28;20635;-53
2022/07/11 05:28:15;;;;;;;6.20;4.70;;;;;;;;;;2090080;28;20214;-54
2022/07/11 05:29:15;;;;;;;5.15;4.72;;;;;;;;;;2090045;28;20637;-54
2022/07/11 05:30:15;;;;;;;6.72;4.95;;;;;;;;;;2082387;28;20244;-51
2022/07/11 05:31:16;;;;;;;6.35;4.93;;;;;;;;;;2082476;28;20199;-51
2022/07/11 05:32:17;;;;;;;4.53;4.15;;;;;;;;;;2082373;28;20550;-54
2022/07/11 05:33:17;;;;;;;6.40;4.65;;;;;;;;;;2088366;28;20250;-46
2022/07/11 05:34:17;;;;;;;4.72;4.32;;;;;;;;;;2089351;28;21042;-52
2022/07/11 05:35:18;;;;;;;4.97;4.22;;;;;;;;;;2090343;28;20164;-50
2022/07/11 05:36:18;;;;;;;4.50;4.10;;;;;;;;;;2090738;28;20255;-54
2022/07/11 05:37:18;;;;;;;5.35;4.13;;;;;;;;;;2090602;28;20180;-48
2022/07/11 05:38:19;;;;;;;5.03;4.18;;;;;;;;;;2090809;28;20171;-49
2022/07/11 05:39:19;;;;;;;6.40;4.22;;;;;;;;;;2090544;28;20540;-60
2022/07/11 05:40:20;;;;;;;5.53;3.92;;;;;;;;;;2090133;28;20251;-54
2022/07/11 05:41:20;;;;;;;6.72;3.90;;;;;;;;;;2090508;28;20543;-50
2022/07/11 05:42:20;;;;;;;4.00;3.78;;;;;;;;;;2090431;28;20610;-55
2022/07/11 05:43:23;;;;;;;5.00;3.83;;;;;;;;;;2090317;28;20164;-54
2022/07/11 05:44:23;;;;;;;4.55;4.10;;;;;;;;;;2090277;28;20160;-54
2022/07/11 05:45:23;;;;;;;4.50;3.38;;;;;;;;;;2091236;28;20167;-52
2022/07/11 05:46:24;;;;;;;6.97;4.03;;;;;;;;;;2090670;28;20188;-52
2022/07/11 05:47:24;;;;;;;4.40;3.53;;;;;;;;;;2090142;28;20182;-53
2022/07/11 05:48:24;;;;;;;4.00;3.58;;;;;;;;;;2090386;28;20221;-54
2022/07/11 05:49:25;;;;;;;4.00;3.30;;;;;;;;;;2089972;28;20617;-50
2022/07/11 05:50:25;;;;;;;4.55;3.33;;;;;;;;;;2089900;28;20179;-53
2022/07/11 05:51:25;;;;;;;4.22;3.45;;;;;;;;;;2090409;28;20240;-50
2022/07/11 05:52:26;;;;;;;3.30;2.97;;;;;;;;;;2090672;28;20179;-49
2022/07/11 05:53:26;;;;;;;4.55;4.15;;;;;;;;;;2090508;28;20640;-51
2022/07/11 05:54:26;;;;;;;3.92;3.10;;;;;;;;;;2089853;28;20207;-53
2022/07/11 05:55:26;;;;;;;3.05;2.85;;;;;;;;;;2090668;28;20171;-55
2022/07/11 05:56:27;;;;;;;2.55;2.35;;;;;;;;;;2089912;28;20547;-50
2022/07/11 05:57:27;;;;;;;3.45;3.15;;;;;;;;;;2089889;28;20603;-54
2022/07/11 05:58:27;;;;;;;3.22;2.33;;;;;;;;;;2090040;28;20262;-51
2022/07/11 05:59:28;;;;;;;2.92;2.67;;;;;;;;;;2089999;28;20171;-50
2022/07/11 06:00:29;;;;;;;4.05;2.47;;;;;;;;;;2090545;28;20269;-50
2022/07/11 06:01:31;;;;;;;7.20;3.38;;;;;;;;;;2089975;28;20179;-50
2022/07/11 06:02:32;;;;;;;4.63;2.55;;;;;;;;;;2089529;28;20160;-52